sensor_id;sensor_type;location;lat;lon;timestamp;P1;durP1;ratioP1;P2;durP2;ratioP2
78799;SDS011;68148;55.328;86.106;2023-09-18T00:00:26;17.90;;;6.50;;
78799;SDS011;68148;55.328;86.106;2023-09-18T00:02:51;24.02;;;7.43;;
78799;SDS011;68148;55.328;86.106;2023-09-18T00:05:17;23.95;;;6.85;;
78799;SDS011;68148;55.328;86.106;2023-09-18T00:07:43;18.70;;;7.03;;
78799;SDS011;68148;55.328;86.106;2023-09-18T00:10:10;25.80;;;6.93;;
78799;SDS011;68148;55.328;86.106;2023-09-18T00:12:36;24.27;;;7.10;;
78799;SDS011;68148;55.328;86.106;2023-09-18T00:15:03;28.50;;;9.05;;
78799;SDS011;68148;55.328;86.106;2023-09-18T00:17:30;27.88;;;7.63;;
78799;SDS011;68148;55.328;86.106;2023-09-18T00:19:55;26.90;;;6.80;;
78799;SDS011;68148;55.328;86.106;2023-09-18T00:22:22;26.42;;;8.18;;
78799;SDS011;68148;55.328;86.106;2023-09-18T00:24:48;34.90;;;6.18;;
78799;SDS011;68148;55.328;86.106;2023-09-18T00:27:14;15.50;;;5.88;;
78799;SDS011;68148;55.328;86.106;2023-09-18T00:29:40;32.30;;;8.30;;
78799;SDS011;68148;55.328;86.106;2023-09-18T00:32:05;36.67;;;7.90;;
78799;SDS011;68148;55.328;86.106;2023-09-18T00:34:31;28.13;;;7.70;;
78799;SDS011;68148;55.328;86.106;2023-09-18T00:36:57;39.38;;;10.20;;
78799;SDS011;68148;55.328;86.106;2023-09-18T00:39:23;34.60;;;9.88;;
78799;SDS011;68148;55.328;86.106;2023-09-18T00:41:49;31.27;;;9.65;;
78799;SDS011;68148;55.328;86.106;2023-09-18T00:44:15;25.08;;;11.63;;
78799;SDS011;68148;55.328;86.106;2023-09-18T00:46:40;25.83;;;9.43;;
78799;SDS011;68148;55.328;86.106;2023-09-18T00:49:06;30.38;;;7.80;;
78799;SDS011;68148;55.328;86.106;2023-09-18T00:51:32;25.67;;;6.50;;
78799;SDS011;68148;55.328;86.106;2023-09-18T00:53:58;21.13;;;6.22;;
78799;SDS011;68148;55.328;86.106;2023-09-18T00:56:24;27.58;;;7.45;;
78799;SDS011;68148;55.328;86.106;2023-09-18T00:58:50;39.38;;;7.68;;
78799;SDS011;68148;55.328;86.106;2023-09-18T01:01:17;34.20;;;8.52;;
78799;SDS011;68148;55.328;86.106;2023-09-18T01:03:44;25.73;;;7.57;;
78799;SDS011;68148;55.328;86.106;2023-09-18T01:06:10;23.23;;;7.88;;
78799;SDS011;68148;55.328;86.106;2023-09-18T01:08:35;47.20;;;9.90;;
78799;SDS011;68148;55.328;86.106;2023-09-18T01:11:13;34.00;;;10.20;;
78799;SDS011;68148;55.328;86.106;2023-09-18T01:14:14;31.15;;;8.25;;
78799;SDS011;68148;55.328;86.106;2023-09-18T01:16:41;28.30;;;8.23;;
78799;SDS011;68148;55.328;86.106;2023-09-18T01:19:13;26.95;;;9.55;;
78799;SDS011;68148;55.328;86.106;2023-09-18T01:21:39;26.02;;;8.05;;
78799;SDS011;68148;55.328;86.106;2023-09-18T01:24:04;38.28;;;9.20;;
78799;SDS011;68148;55.328;86.106;2023-09-18T01:26:30;37.25;;;10.88;;
78799;SDS011;68148;55.328;86.106;2023-09-18T01:28:56;31.98;;;11.70;;
78799;SDS011;68148;55.328;86.106;2023-09-18T01:31:22;38.50;;;11.40;;
78799;SDS011;68148;55.328;86.106;2023-09-18T01:33:48;35.70;;;11.57;;
78799;SDS011;68148;55.328;86.106;2023-09-18T01:36:17;38.75;;;10.05;;
78799;SDS011;68148;55.328;86.106;2023-09-18T01:38:50;43.28;;;10.07;;
78799;SDS011;68148;55.328;86.106;2023-09-18T01:41:16;28.30;;;11.38;;
78799;SDS011;68148;55.328;86.106;2023-09-18T01:43:42;36.13;;;11.13;;
78799;SDS011;68148;55.328;86.106;2023-09-18T01:46:09;36.08;;;10.95;;
78799;SDS011;68148;55.328;86.106;2023-09-18T01:48:35;45.65;;;11.90;;
78799;SDS011;68148;55.328;86.106;2023-09-18T01:51:02;39.83;;;14.93;;
78799;SDS011;68148;55.328;86.106;2023-09-18T01:53:32;39.85;;;12.27;;
78799;SDS011;68148;55.328;86.106;2023-09-18T01:55:58;48.63;;;14.25;;
78799;SDS011;68148;55.328;86.106;2023-09-18T01:58:24;33.90;;;13.32;;
78799;SDS011;68148;55.328;86.106;2023-09-18T02:00:50;49.72;;;17.05;;
78799;SDS011;68148;55.328;86.106;2023-09-18T02:03:16;43.85;;;15.88;;
78799;SDS011;68148;55.328;86.106;2023-09-18T02:05:42;47.50;;;15.98;;
78799;SDS011;68148;55.328;86.106;2023-09-18T02:08:07;44.67;;;15.25;;
78799;SDS011;68148;55.328;86.106;2023-09-18T02:10:33;53.25;;;16.65;;
78799;SDS011;68148;55.328;86.106;2023-09-18T02:12:59;50.70;;;15.38;;
78799;SDS011;68148;55.328;86.106;2023-09-18T02:15:25;58.15;;;17.55;;
78799;SDS011;68148;55.328;86.106;2023-09-18T02:17:52;58.65;;;18.83;;
78799;SDS011;68148;55.328;86.106;2023-09-18T02:20:17;44.72;;;16.48;;
78799;SDS011;68148;55.328;86.106;2023-09-18T02:22:43;51.47;;;17.13;;
78799;SDS011;68148;55.328;86.106;2023-09-18T02:25:09;46.85;;;17.08;;
78799;SDS011;68148;55.328;86.106;2023-09-18T02:27:35;59.05;;;16.40;;
78799;SDS011;68148;55.328;86.106;2023-09-18T02:30:01;40.28;;;15.63;;
78799;SDS011;68148;55.328;86.106;2023-09-18T02:32:26;57.58;;;17.58;;
78799;SDS011;68148;55.328;86.106;2023-09-18T02:34:52;50.95;;;18.55;;
78799;SDS011;68148;55.328;86.106;2023-09-18T02:37:19;72.05;;;19.58;;
78799;SDS011;68148;55.328;86.106;2023-09-18T02:39:46;58.00;;;18.67;;
78799;SDS011;68148;55.328;86.106;2023-09-18T02:42:12;65.15;;;20.48;;
78799;SDS011;68148;55.328;86.106;2023-09-18T02:44:38;62.92;;;19.40;;
78799;SDS011;68148;55.328;86.106;2023-09-18T02:47:03;55.88;;;19.13;;
78799;SDS011;68148;55.328;86.106;2023-09-18T02:49:29;55.22;;;19.52;;
78799;SDS011;68148;55.328;86.106;2023-09-18T02:51:56;53.92;;;18.70;;
78799;SDS011;68148;55.328;86.106;2023-09-18T02:54:22;36.90;;;12.00;;
78799;SDS011;68148;55.328;86.106;2023-09-18T02:56:48;30.92;;;12.27;;
78799;SDS011;68148;55.328;86.106;2023-09-18T02:59:13;28.20;;;11.38;;
78799;SDS011;68148;55.328;86.106;2023-09-18T03:01:39;34.08;;;10.18;;
78799;SDS011;68148;55.328;86.106;2023-09-18T03:04:05;35.47;;;11.68;;
78799;SDS011;68148;55.328;86.106;2023-09-18T03:06:31;32.83;;;11.02;;
78799;SDS011;68148;55.328;86.106;2023-09-18T03:08:57;32.22;;;9.80;;
78799;SDS011;68148;55.328;86.106;2023-09-18T03:11:22;28.73;;;11.15;;
78799;SDS011;68148;55.328;86.106;2023-09-18T03:13:48;30.20;;;11.57;;
78799;SDS011;68148;55.328;86.106;2023-09-18T03:16:14;28.13;;;9.23;;
78799;SDS011;68148;55.328;86.106;2023-09-18T03:18:40;32.10;;;10.23;;
78799;SDS011;68148;55.328;86.106;2023-09-18T03:21:06;31.27;;;8.38;;
78799;SDS011;68148;55.328;86.106;2023-09-18T03:23:31;28.42;;;8.00;;
78799;SDS011;68148;55.328;86.106;2023-09-18T03:25:57;25.20;;;8.30;;
78799;SDS011;68148;55.328;86.106;2023-09-18T03:28:24;25.45;;;7.90;;
78799;SDS011;68148;55.328;86.106;2023-09-18T03:30:49;15.82;;;8.35;;
78799;SDS011;68148;55.328;86.106;2023-09-18T03:33:15;29.67;;;9.23;;
78799;SDS011;68148;55.328;86.106;2023-09-18T03:35:51;29.05;;;9.48;;
78799;SDS011;68148;55.328;86.106;2023-09-18T03:38:17;24.88;;;9.55;;
78799;SDS011;68148;55.328;86.106;2023-09-18T03:40:43;31.83;;;10.10;;
78799;SDS011;68148;55.328;86.106;2023-09-18T03:43:09;28.60;;;10.77;;
78799;SDS011;68148;55.328;86.106;2023-09-18T03:45:36;24.88;;;10.40;;
78799;SDS011;68148;55.328;86.106;2023-09-18T03:48:03;27.40;;;12.27;;
78799;SDS011;68148;55.328;86.106;2023-09-18T03:50:29;29.17;;;12.15;;
78799;SDS011;68148;55.328;86.106;2023-09-18T03:52:55;32.35;;;11.02;;
78799;SDS011;68148;55.328;86.106;2023-09-18T03:55:21;27.00;;;11.32;;
78799;SDS011;68148;55.328;86.106;2023-09-18T03:57:46;24.40;;;11.50;;
78799;SDS011;68148;55.328;86.106;2023-09-18T04:00:12;19.67;;;10.10;;
78799;SDS011;68148;55.328;86.106;2023-09-18T04:02:38;19.55;;;9.98;;
78799;SDS011;68148;55.328;86.106;2023-09-18T04:05:04;20.67;;;9.20;;
78799;SDS011;68148;55.328;86.106;2023-09-18T04:07:30;20.05;;;9.77;;
78799;SDS011;68148;55.328;86.106;2023-09-18T04:09:56;20.40;;;8.25;;
78799;SDS011;68148;55.328;86.106;2023-09-18T04:12:24;15.63;;;8.07;;
78799;SDS011;68148;55.328;86.106;2023-09-18T04:14:50;16.30;;;8.57;;
78799;SDS011;68148;55.328;86.106;2023-09-18T04:17:16;22.30;;;10.35;;
78799;SDS011;68148;55.328;86.106;2023-09-18T04:19:43;17.88;;;9.00;;
78799;SDS011;68148;55.328;86.106;2023-09-18T04:22:09;17.75;;;8.82;;
78799;SDS011;68148;55.328;86.106;2023-09-18T04:24:36;20.77;;;11.80;;
78799;SDS011;68148;55.328;86.106;2023-09-18T04:27:02;21.38;;;9.93;;
78799;SDS011;68148;55.328;86.106;2023-09-18T04:29:28;20.13;;;10.02;;
78799;SDS011;68148;55.328;86.106;2023-09-18T04:31:54;20.95;;;9.65;;
78799;SDS011;68148;55.328;86.106;2023-09-18T04:34:20;24.55;;;11.60;;
78799;SDS011;68148;55.328;86.106;2023-09-18T04:36:46;28.25;;;12.30;;
78799;SDS011;68148;55.328;86.106;2023-09-18T04:39:12;28.30;;;13.10;;
78799;SDS011;68148;55.328;86.106;2023-09-18T04:41:38;31.15;;;14.07;;
78799;SDS011;68148;55.328;86.106;2023-09-18T04:44:05;29.70;;;13.55;;
78799;SDS011;68148;55.328;86.106;2023-09-18T04:46:31;34.95;;;15.20;;
78799;SDS011;68148;55.328;86.106;2023-09-18T04:48:58;38.53;;;16.77;;
78799;SDS011;68148;55.328;86.106;2023-09-18T04:51:24;46.88;;;18.50;;
78799;SDS011;68148;55.328;86.106;2023-09-18T04:53:50;41.30;;;18.20;;
78799;SDS011;68148;55.328;86.106;2023-09-18T04:56:16;55.97;;;20.80;;
78799;SDS011;68148;55.328;86.106;2023-09-18T04:58:42;55.65;;;22.13;;
78799;SDS011;68148;55.328;86.106;2023-09-18T05:01:07;44.78;;;19.13;;
78799;SDS011;68148;55.328;86.106;2023-09-18T05:03:34;55.08;;;19.42;;
78799;SDS011;68148;55.328;86.106;2023-09-18T05:06:00;55.88;;;18.65;;
78799;SDS011;68148;55.328;86.106;2023-09-18T05:08:26;59.85;;;19.45;;
78799;SDS011;68148;55.328;86.106;2023-09-18T05:10:52;61.70;;;20.48;;
78799;SDS011;68148;55.328;86.106;2023-09-18T05:13:18;52.03;;;17.17;;
78799;SDS011;68148;55.328;86.106;2023-09-18T05:15:44;51.92;;;17.02;;
78799;SDS011;68148;55.328;86.106;2023-09-18T05:18:09;56.13;;;18.33;;
78799;SDS011;68148;55.328;86.106;2023-09-18T05:20:36;60.40;;;19.23;;
78799;SDS011;68148;55.328;86.106;2023-09-18T05:23:02;50.95;;;16.55;;
78799;SDS011;68148;55.328;86.106;2023-09-18T05:25:28;48.97;;;16.00;;
78799;SDS011;68148;55.328;86.106;2023-09-18T05:27:54;54.15;;;15.48;;
78799;SDS011;68148;55.328;86.106;2023-09-18T05:30:29;72.78;;;15.40;;
78799;SDS011;68148;55.328;86.106;2023-09-18T05:32:56;76.88;;;16.17;;
78799;SDS011;68148;55.328;86.106;2023-09-18T05:35:22;75.22;;;15.10;;
78799;SDS011;68148;55.328;86.106;2023-09-18T05:37:49;54.28;;;13.63;;
78799;SDS011;68148;55.328;86.106;2023-09-18T05:40:15;68.78;;;14.75;;
78799;SDS011;68148;55.328;86.106;2023-09-18T05:42:41;65.38;;;13.02;;
78799;SDS011;68148;55.328;86.106;2023-09-18T05:45:08;57.13;;;13.80;;
78799;SDS011;68148;55.328;86.106;2023-09-18T05:47:35;60.75;;;13.70;;
78799;SDS011;68148;55.328;86.106;2023-09-18T05:50:02;81.95;;;14.02;;
78799;SDS011;68148;55.328;86.106;2023-09-18T05:52:29;77.07;;;12.85;;
78799;SDS011;68148;55.328;86.106;2023-09-18T05:54:55;54.95;;;12.27;;
78799;SDS011;68148;55.328;86.106;2023-09-18T05:57:21;52.25;;;11.80;;
78799;SDS011;68148;55.328;86.106;2023-09-18T05:59:46;48.60;;;11.63;;
78799;SDS011;68148;55.328;86.106;2023-09-18T06:02:12;39.92;;;10.85;;
78799;SDS011;68148;55.328;86.106;2023-09-18T06:04:38;41.15;;;10.60;;
78799;SDS011;68148;55.328;86.106;2023-09-18T06:07:04;43.17;;;11.90;;
78799;SDS011;68148;55.328;86.106;2023-09-18T06:09:30;47.55;;;12.43;;
78799;SDS011;68148;55.328;86.106;2023-09-18T06:11:55;41.90;;;11.02;;
78799;SDS011;68148;55.328;86.106;2023-09-18T06:14:22;43.45;;;10.07;;
78799;SDS011;68148;55.328;86.106;2023-09-18T06:16:48;30.95;;;8.63;;
78799;SDS011;68148;55.328;86.106;2023-09-18T06:19:14;34.28;;;8.52;;
78799;SDS011;68148;55.328;86.106;2023-09-18T06:21:41;28.40;;;8.82;;
78799;SDS011;68148;55.328;86.106;2023-09-18T06:24:07;21.98;;;8.48;;
78799;SDS011;68148;55.328;86.106;2023-09-18T06:26:33;29.85;;;8.45;;
78799;SDS011;68148;55.328;86.106;2023-09-18T06:28:58;35.60;;;8.00;;
78799;SDS011;68148;55.328;86.106;2023-09-18T06:31:24;36.10;;;8.77;;
78799;SDS011;68148;55.328;86.106;2023-09-18T06:33:50;34.95;;;9.05;;
78799;SDS011;68148;55.328;86.106;2023-09-18T06:36:16;34.42;;;9.60;;
78799;SDS011;68148;55.328;86.106;2023-09-18T06:38:41;30.10;;;8.70;;
78799;SDS011;68148;55.328;86.106;2023-09-18T06:41:07;22.77;;;7.43;;
78799;SDS011;68148;55.328;86.106;2023-09-18T06:43:33;25.08;;;7.53;;
78799;SDS011;68148;55.328;86.106;2023-09-18T06:45:59;27.52;;;7.90;;
78799;SDS011;68148;55.328;86.106;2023-09-18T06:48:27;26.85;;;7.00;;
78799;SDS011;68148;55.328;86.106;2023-09-18T06:50:53;24.60;;;7.00;;
78799;SDS011;68148;55.328;86.106;2023-09-18T06:53:19;22.08;;;7.63;;
78799;SDS011;68148;55.328;86.106;2023-09-18T06:55:44;25.92;;;7.30;;
78799;SDS011;68148;55.328;86.106;2023-09-18T06:58:10;38.50;;;8.18;;
78799;SDS011;68148;55.328;86.106;2023-09-18T07:00:36;19.25;;;5.45;;
78799;SDS011;68148;55.328;86.106;2023-09-18T07:03:02;8.82;;;3.20;;
78799;SDS011;68148;55.328;86.106;2023-09-18T07:05:28;9.65;;;2.90;;
78799;SDS011;68148;55.328;86.106;2023-09-18T07:07:54;9.23;;;3.10;;
78799;SDS011;68148;55.328;86.106;2023-09-18T07:10:19;17.60;;;3.40;;
78799;SDS011;68148;55.328;86.106;2023-09-18T07:12:45;12.30;;;2.85;;
78799;SDS011;68148;55.328;86.106;2023-09-18T07:15:11;15.10;;;3.33;;
78799;SDS011;68148;55.328;86.106;2023-09-18T07:17:36;13.55;;;3.72;;
78799;SDS011;68148;55.328;86.106;2023-09-18T07:20:05;12.80;;;3.78;;
78799;SDS011;68148;55.328;86.106;2023-09-18T07:22:31;15.18;;;3.65;;
78799;SDS011;68148;55.328;86.106;2023-09-18T07:24:56;16.77;;;4.10;;
78799;SDS011;68148;55.328;86.106;2023-09-18T07:27:23;42.00;;;5.25;;
78799;SDS011;68148;55.328;86.106;2023-09-18T07:29:48;17.92;;;3.58;;
78799;SDS011;68148;55.328;86.106;2023-09-18T07:32:14;19.65;;;3.95;;
78799;SDS011;68148;55.328;86.106;2023-09-18T07:34:40;28.75;;;4.88;;
78799;SDS011;68148;55.328;86.106;2023-09-18T07:37:05;12.02;;;4.03;;
78799;SDS011;68148;55.328;86.106;2023-09-18T07:39:31;37.67;;;4.80;;
78799;SDS011;68148;55.328;86.106;2023-09-18T07:41:57;22.58;;;4.05;;
78799;SDS011;68148;55.328;86.106;2023-09-18T07:44:22;21.20;;;5.10;;
78799;SDS011;68148;55.328;86.106;2023-09-18T07:46:48;18.40;;;4.95;;
78799;SDS011;68148;55.328;86.106;2023-09-18T07:49:14;22.10;;;5.15;;
78799;SDS011;68148;55.328;86.106;2023-09-18T07:51:40;22.05;;;5.65;;
78799;SDS011;68148;55.328;86.106;2023-09-18T07:54:06;26.80;;;7.10;;
78799;SDS011;68148;55.328;86.106;2023-09-18T07:56:32;26.50;;;7.70;;
78799;SDS011;68148;55.328;86.106;2023-09-18T07:58:58;30.15;;;8.15;;
78799;SDS011;68148;55.328;86.106;2023-09-18T08:01:24;31.75;;;7.53;;
78799;SDS011;68148;55.328;86.106;2023-09-18T08:03:49;33.70;;;11.15;;
78799;SDS011;68148;55.328;86.106;2023-09-18T08:06:15;36.63;;;13.73;;
78799;SDS011;68148;55.328;86.106;2023-09-18T08:08:41;52.20;;;19.67;;
78799;SDS011;68148;55.328;86.106;2023-09-18T08:11:07;61.97;;;23.15;;
78799;SDS011;68148;55.328;86.106;2023-09-18T08:13:33;65.00;;;24.88;;
78799;SDS011;68148;55.328;86.106;2023-09-18T08:15:59;44.10;;;17.13;;
78799;SDS011;68148;55.328;86.106;2023-09-18T08:18:25;46.30;;;20.13;;
78799;SDS011;68148;55.328;86.106;2023-09-18T08:20:51;58.67;;;20.85;;
78799;SDS011;68148;55.328;86.106;2023-09-18T08:23:16;50.22;;;19.00;;
78799;SDS011;68148;55.328;86.106;2023-09-18T08:25:42;60.55;;;19.33;;
78799;SDS011;68148;55.328;86.106;2023-09-18T08:28:08;65.00;;;23.15;;
78799;SDS011;68148;55.328;86.106;2023-09-18T08:30:34;64.78;;;23.98;;
78799;SDS011;68148;55.328;86.106;2023-09-18T08:32:59;59.35;;;21.42;;
78799;SDS011;68148;55.328;86.106;2023-09-18T08:35:25;63.78;;;23.10;;
78799;SDS011;68148;55.328;86.106;2023-09-18T08:37:51;65.05;;;23.65;;
78799;SDS011;68148;55.328;86.106;2023-09-18T08:40:16;77.55;;;25.27;;
78799;SDS011;68148;55.328;86.106;2023-09-18T08:42:46;44.60;;;16.90;;
78799;SDS011;68148;55.328;86.106;2023-09-18T08:45:22;34.83;;;14.38;;
78799;SDS011;68148;55.328;86.106;2023-09-18T08:47:55;86.60;;;19.40;;
78799;SDS011;68148;55.328;86.106;2023-09-18T08:50:22;59.65;;;22.98;;
78799;SDS011;68148;55.328;86.106;2023-09-18T08:52:50;92.82;;;33.10;;
78799;SDS011;68148;55.328;86.106;2023-09-18T08:55:16;50.67;;;16.23;;
78799;SDS011;68148;55.328;86.106;2023-09-18T08:57:42;50.85;;;18.58;;
78799;SDS011;68148;55.328;86.106;2023-09-18T09:00:11;55.15;;;17.15;;
78799;SDS011;68148;55.328;86.106;2023-09-18T09:02:38;55.55;;;16.75;;
78799;SDS011;68148;55.328;86.106;2023-09-18T09:05:04;19.02;;;7.63;;
78799;SDS011;68148;55.328;86.106;2023-09-18T09:07:30;19.70;;;7.00;;
78799;SDS011;68148;55.328;86.106;2023-09-18T09:09:56;41.85;;;10.05;;
78799;SDS011;68148;55.328;86.106;2023-09-18T09:15:18;31.08;;;9.85;;
78799;SDS011;68148;55.328;86.106;2023-09-18T09:17:48;35.83;;;9.05;;
78799;SDS011;68148;55.328;86.106;2023-09-18T09:20:15;18.15;;;6.35;;
78799;SDS011;68148;55.328;86.106;2023-09-18T09:22:41;18.80;;;5.43;;
78799;SDS011;68148;55.328;86.106;2023-09-18T09:27:45;12.95;;;3.97;;
78799;SDS011;68148;55.328;86.106;2023-09-18T09:30:11;15.88;;;4.80;;
78799;SDS011;68148;55.328;86.106;2023-09-18T09:32:43;15.27;;;4.28;;
78799;SDS011;68148;55.328;86.106;2023-09-18T09:35:18;7.25;;;3.67;;
78799;SDS011;68148;55.328;86.106;2023-09-18T09:37:45;12.23;;;3.67;;
78799;SDS011;68148;55.328;86.106;2023-09-18T09:40:11;22.35;;;5.32;;
78799;SDS011;68148;55.328;86.106;2023-09-18T09:42:38;19.63;;;4.70;;
78799;SDS011;68148;55.328;86.106;2023-09-18T09:45:07;19.70;;;4.50;;
78799;SDS011;68148;55.328;86.106;2023-09-18T09:47:37;26.05;;;4.57;;
78799;SDS011;68148;55.328;86.106;2023-09-18T09:50:05;14.38;;;4.20;;
78799;SDS011;68148;55.328;86.106;2023-09-18T09:52:33;13.85;;;3.90;;
78799;SDS011;68148;55.328;86.106;2023-09-18T09:54:59;16.77;;;3.47;;
78799;SDS011;68148;55.328;86.106;2023-09-18T09:57:25;24.23;;;4.07;;
78799;SDS011;68148;55.328;86.106;2023-09-18T09:59:50;21.85;;;4.00;;
78799;SDS011;68148;55.328;86.106;2023-09-18T10:02:16;15.45;;;4.40;;
78799;SDS011;68148;55.328;86.106;2023-09-18T10:04:43;18.15;;;4.25;;
78799;SDS011;68148;55.328;86.106;2023-09-18T10:07:09;27.10;;;4.43;;
78799;SDS011;68148;55.328;86.106;2023-09-18T10:09:36;14.20;;;4.35;;
78799;SDS011;68148;55.328;86.106;2023-09-18T10:12:10;16.13;;;3.83;;
78799;SDS011;68148;55.328;86.106;2023-09-18T10:14:37;12.23;;;4.15;;
78799;SDS011;68148;55.328;86.106;2023-09-18T10:17:16;9.88;;;4.15;;
78799;SDS011;68148;55.328;86.106;2023-09-18T10:20:05;8.68;;;3.75;;
78799;SDS011;68148;55.328;86.106;2023-09-18T10:22:38;17.92;;;6.85;;
78799;SDS011;68148;55.328;86.106;2023-09-18T10:25:07;26.40;;;10.43;;
78799;SDS011;68148;55.328;86.106;2023-09-18T10:27:48;21.17;;;7.15;;
78799;SDS011;68148;55.328;86.106;2023-09-18T10:30:16;28.55;;;7.43;;
78799;SDS011;68148;55.328;86.106;2023-09-18T10:32:42;27.70;;;7.85;;
78799;SDS011;68148;55.328;86.106;2023-09-18T10:35:10;21.83;;;6.38;;
78799;SDS011;68148;55.328;86.106;2023-09-18T10:37:36;10.23;;;4.25;;
78799;SDS011;68148;55.328;86.106;2023-09-18T10:40:03;12.13;;;5.88;;
78799;SDS011;68148;55.328;86.106;2023-09-18T10:42:30;32.78;;;8.45;;
78799;SDS011;68148;55.328;86.106;2023-09-18T10:44:57;25.05;;;6.65;;
78799;SDS011;68148;55.328;86.106;2023-09-18T10:47:23;19.52;;;5.70;;
78799;SDS011;68148;55.328;86.106;2023-09-18T10:49:49;18.75;;;7.05;;
78799;SDS011;68148;55.328;86.106;2023-09-18T10:52:15;13.70;;;4.93;;
78799;SDS011;68148;55.328;86.106;2023-09-18T10:54:41;14.35;;;5.18;;
78799;SDS011;68148;55.328;86.106;2023-09-18T10:57:07;16.17;;;6.22;;
78799;SDS011;68148;55.328;86.106;2023-09-18T10:59:33;21.27;;;5.72;;
78799;SDS011;68148;55.328;86.106;2023-09-18T11:02:02;24.02;;;5.45;;
78799;SDS011;68148;55.328;86.106;2023-09-18T11:04:30;19.80;;;6.45;;
78799;SDS011;68148;55.328;86.106;2023-09-18T11:07:03;12.00;;;4.53;;
78799;SDS011;68148;55.328;86.106;2023-09-18T11:09:31;13.00;;;4.97;;
78799;SDS011;68148;55.328;86.106;2023-09-18T11:14:59;16.63;;;5.18;;
78799;SDS011;68148;55.328;86.106;2023-09-18T11:20:15;21.75;;;7.82;;
78799;SDS011;68148;55.328;86.106;2023-09-18T11:22:50;19.52;;;7.65;;
78799;SDS011;68148;55.328;86.106;2023-09-18T11:25:55;24.45;;;6.25;;
78799;SDS011;68148;55.328;86.106;2023-09-18T11:28:15;30.90;;;6.82;;
78799;SDS011;68148;55.328;86.106;2023-09-18T11:30:49;26.50;;;6.28;;
78799;SDS011;68148;55.328;86.106;2023-09-18T11:33:15;35.35;;;8.95;;
78799;SDS011;68148;55.328;86.106;2023-09-18T11:35:56;24.58;;;8.20;;
78799;SDS011;68148;55.328;86.106;2023-09-18T11:38:22;45.72;;;8.35;;
78799;SDS011;68148;55.328;86.106;2023-09-18T11:40:48;36.33;;;8.38;;
78799;SDS011;68148;55.328;86.106;2023-09-18T11:45:49;30.42;;;7.95;;
78799;SDS011;68148;55.328;86.106;2023-09-18T11:48:15;27.83;;;8.40;;
78799;SDS011;68148;55.328;86.106;2023-09-18T11:50:41;24.52;;;8.35;;
78799;SDS011;68148;55.328;86.106;2023-09-18T11:53:08;41.20;;;13.38;;
78799;SDS011;68148;55.328;86.106;2023-09-18T11:55:37;53.38;;;12.18;;
78799;SDS011;68148;55.328;86.106;2023-09-18T11:58:03;67.15;;;14.35;;
78799;SDS011;68148;55.328;86.106;2023-09-18T12:00:30;66.00;;;13.43;;
78799;SDS011;68148;55.328;86.106;2023-09-18T12:03:11;46.20;;;13.93;;
78799;SDS011;68148;55.328;86.106;2023-09-18T12:08:06;65.95;;;14.43;;
78799;SDS011;68148;55.328;86.106;2023-09-18T12:10:32;28.90;;;8.13;;
78799;SDS011;68148;55.328;86.106;2023-09-18T12:12:58;33.17;;;8.68;;
78799;SDS011;68148;55.328;86.106;2023-09-18T12:15:24;45.65;;;10.43;;
78799;SDS011;68148;55.328;86.106;2023-09-18T12:17:54;27.45;;;7.05;;
78799;SDS011;68148;55.328;86.106;2023-09-18T12:20:21;39.30;;;9.68;;
78799;SDS011;68148;55.328;86.106;2023-09-18T12:22:47;42.53;;;9.80;;
78799;SDS011;68148;55.328;86.106;2023-09-18T12:25:14;57.47;;;14.95;;
78799;SDS011;68148;55.328;86.106;2023-09-18T12:27:41;52.78;;;16.40;;
78799;SDS011;68148;55.328;86.106;2023-09-18T12:30:07;56.75;;;17.25;;
78799;SDS011;68148;55.328;86.106;2023-09-18T12:32:37;71.05;;;19.42;;
78799;SDS011;68148;55.328;86.106;2023-09-18T12:35:03;73.43;;;24.90;;
78799;SDS011;68148;55.328;86.106;2023-09-18T12:37:31;97.60;;;28.20;;
78799;SDS011;68148;55.328;86.106;2023-09-18T12:39:56;102.65;;;25.45;;
78799;SDS011;68148;55.328;86.106;2023-09-18T12:42:22;91.75;;;23.58;;
78799;SDS011;68148;55.328;86.106;2023-09-18T12:44:48;107.05;;;23.80;;
78799;SDS011;68148;55.328;86.106;2023-09-18T12:47:15;107.65;;;20.92;;
78799;SDS011;68148;55.328;86.106;2023-09-18T12:49:41;96.75;;;27.58;;
78799;SDS011;68148;55.328;86.106;2023-09-18T12:52:07;92.57;;;24.52;;
78799;SDS011;68148;55.328;86.106;2023-09-18T12:54:43;92.70;;;25.60;;
78799;SDS011;68148;55.328;86.106;2023-09-18T12:57:10;96.03;;;24.60;;
78799;SDS011;68148;55.328;86.106;2023-09-18T12:59:36;107.65;;;26.83;;
78799;SDS011;68148;55.328;86.106;2023-09-18T13:02:03;92.22;;;27.23;;
78799;SDS011;68148;55.328;86.106;2023-09-18T13:04:31;112.20;;;33.15;;
78799;SDS011;68148;55.328;86.106;2023-09-18T13:09:34;105.72;;;31.65;;
78799;SDS011;68148;55.328;86.106;2023-09-18T13:12:00;118.80;;;33.90;;
78799;SDS011;68148;55.328;86.106;2023-09-18T13:14:26;103.13;;;30.85;;
78799;SDS011;68148;55.328;86.106;2023-09-18T13:16:52;106.97;;;31.33;;
78799;SDS011;68148;55.328;86.106;2023-09-18T13:19:19;92.45;;;31.55;;
78799;SDS011;68148;55.328;86.106;2023-09-18T13:21:48;91.97;;;30.50;;
78799;SDS011;68148;55.328;86.106;2023-09-18T13:26:53;89.15;;;29.95;;
78799;SDS011;68148;55.328;86.106;2023-09-18T13:29:20;88.55;;;29.65;;
78799;SDS011;68148;55.328;86.106;2023-09-18T13:31:46;87.75;;;29.27;;
78799;SDS011;68148;55.328;86.106;2023-09-18T13:34:12;82.45;;;32.90;;
78799;SDS011;68148;55.328;86.106;2023-09-18T13:36:38;80.35;;;29.35;;
78799;SDS011;68148;55.328;86.106;2023-09-18T13:39:04;83.07;;;29.95;;
78799;SDS011;68148;55.328;86.106;2023-09-18T13:41:30;95.72;;;30.02;;
78799;SDS011;68148;55.328;86.106;2023-09-18T13:43:56;86.35;;;27.52;;
78799;SDS011;68148;55.328;86.106;2023-09-18T13:46:22;109.38;;;29.02;;
78799;SDS011;68148;55.328;86.106;2023-09-18T13:48:48;68.95;;;26.85;;
78799;SDS011;68148;55.328;86.106;2023-09-18T13:51:14;89.53;;;25.35;;
78799;SDS011;68148;55.328;86.106;2023-09-18T13:53:40;77.68;;;25.95;;
78799;SDS011;68148;55.328;86.106;2023-09-18T13:56:05;63.05;;;23.10;;
78799;SDS011;68148;55.328;86.106;2023-09-18T13:58:31;72.78;;;23.95;;
78799;SDS011;68148;55.328;86.106;2023-09-18T14:00:57;77.75;;;24.33;;
78799;SDS011;68148;55.328;86.106;2023-09-18T14:03:23;63.40;;;24.40;;
78799;SDS011;68148;55.328;86.106;2023-09-18T14:05:49;73.43;;;24.98;;
78799;SDS011;68148;55.328;86.106;2023-09-18T14:08:15;85.97;;;27.33;;
78799;SDS011;68148;55.328;86.106;2023-09-18T14:10:41;85.90;;;26.80;;
78799;SDS011;68148;55.328;86.106;2023-09-18T14:13:06;90.97;;;29.88;;
78799;SDS011;68148;55.328;86.106;2023-09-18T14:15:32;79.53;;;25.52;;
78799;SDS011;68148;55.328;86.106;2023-09-18T14:17:58;86.82;;;27.38;;
78799;SDS011;68148;55.328;86.106;2023-09-18T14:20:24;84.80;;;27.33;;
78799;SDS011;68148;55.328;86.106;2023-09-18T14:22:50;90.70;;;32.15;;
78799;SDS011;68148;55.328;86.106;2023-09-18T14:25:16;87.85;;;28.02;;
78799;SDS011;68148;55.328;86.106;2023-09-18T14:27:43;65.78;;;27.23;;
78799;SDS011;68148;55.328;86.106;2023-09-18T14:30:09;71.00;;;28.90;;
78799;SDS011;68148;55.328;86.106;2023-09-18T14:32:35;83.93;;;30.60;;